createdAt,value
2018-11-02T00:02:27.423Z,19.20
2018-11-02T00:29:25.554Z,19.10
2018-11-02T00:42:32.663Z,19.10
2018-11-02T01:08:42.163Z,19.00
2018-11-02T01:21:49.267Z,19.00
2018-11-02T01:34:56.452Z,19.00
2018-11-02T02:01:06.288Z,18.90
2018-11-02T02:14:13.478Z,18.90
2018-11-02T02:27:20.612Z,18.90
2018-11-02T02:40:27.772Z,18.90
2018-11-02T02:53:34.962Z,18.80
2018-11-02T03:06:42.133Z,18.80
2018-11-02T03:19:49.295Z,18.80
2018-11-02T03:32:56.458Z,18.80
2018-11-02T03:46:03.623Z,18.80
2018-11-02T03:59:10.742Z,18.80
2018-11-02T04:12:17.942Z,18.80
2018-11-02T04:25:25.116Z,18.70
2018-11-02T04:38:32.321Z,18.70
2018-11-02T04:51:39.477Z,18.70
2018-11-02T05:04:46.645Z,18.70
2018-11-02T05:17:53.818Z,18.70
2018-11-02T05:31:00.942Z,18.70
2018-11-02T05:44:08.082Z,18.70
2018-11-02T05:57:15.203Z,18.70
2018-11-02T06:23:25.193Z,18.40
2018-11-02T06:36:32.409Z,18.40
2018-11-02T06:49:39.568Z,19.10
2018-11-02T07:02:46.790Z,19.90
2018-11-02T07:15:53.921Z,20.40
2018-11-02T07:29:01.062Z,20.40
2018-11-02T07:42:08.229Z,20.20
2018-11-02T07:55:15.454Z,20.10
2018-11-02T08:08:22.693Z,20.10
2018-11-02T08:21:29.994Z,19.90
2018-11-02T08:47:39.646Z,19.50
2018-11-02T09:00:47.004Z,19.40
2018-11-02T09:13:56.903Z,19.40
2018-11-02T09:27:07.517Z,19.40
2018-11-02T09:40:14.676Z,19.30
2018-11-02T09:53:21.790Z,19.30
2018-11-02T10:06:28.983Z,19.20
2018-11-02T10:19:36.196Z,19.30
2018-11-02T10:32:43.337Z,19.30
2018-11-02T10:45:50.567Z,19.70
2018-11-02T10:58:58.174Z,19.60
2018-11-02T11:12:05.441Z,19.60
2018-11-02T11:38:15.427Z,19.60
2018-11-02T11:51:22.564Z,19.80
2018-11-02T12:04:29.728Z,19.70
2018-11-02T12:17:36.892Z,19.70
2018-11-02T12:30:44.032Z,19.70
2018-11-02T12:43:51.247Z,19.80
2018-11-02T12:56:58.342Z,19.80
2018-11-02T13:10:05.498Z,19.80
2018-11-02T13:23:12.602Z,19.80
2018-11-02T13:36:19.808Z,19.90
2018-11-02T13:49:26.946Z,19.90
2018-11-02T14:02:34.114Z,19.90
2018-11-02T14:15:41.366Z,19.70
2018-11-02T14:28:48.552Z,19.50
2018-11-02T14:41:55.704Z,19.50
2018-11-02T14:55:03.196Z,19.40
2018-11-02T15:08:10.388Z,19.30
2018-11-02T15:21:17.565Z,19.40
2018-11-02T15:47:27.361Z,19.30
2018-11-02T16:00:34.592Z,19.30
2018-11-02T16:13:41.751Z,19.50
2018-11-02T16:39:51.584Z,18.60
2018-11-02T16:52:58.750Z,19.00
2018-11-02T17:06:05.936Z,19.60
2018-11-02T17:19:13.114Z,19.90
2018-11-02T17:32:20.291Z,20.00
2018-11-02T17:45:27.481Z,20.00
2018-11-02T17:58:34.674Z,19.90
2018-11-02T18:24:44.633Z,19.70
2018-11-02T18:37:51.916Z,19.70
2018-11-02T18:50:59.241Z,19.60
2018-11-02T19:04:06.507Z,19.70
2018-11-02T19:17:13.742Z,19.70
2018-11-02T19:43:23.718Z,19.50
2018-11-02T19:56:30.957Z,19.50
2018-11-02T20:09:38.338Z,19.60
2018-11-02T20:22:45.544Z,19.60
2018-11-02T20:35:52.905Z,19.60
2018-11-02T20:49:00.275Z,19.60
2018-11-02T21:02:07.315Z,19.40
2018-11-02T21:15:15.215Z,19.40
2018-11-02T21:28:22.566Z,19.40
2018-11-02T21:41:29.697Z,19.40
2018-11-02T21:54:36.834Z,19.40
2018-11-02T22:07:44.000Z,19.30
2018-11-02T22:20:51.519Z,19.20
2018-11-02T22:33:58.691Z,19.20
2018-11-02T22:47:05.829Z,19.20
2018-11-02T23:00:12.964Z,19.20
2018-11-02T23:13:20.117Z,19.20
2018-11-02T23:26:27.188Z,19.20
2018-11-02T23:39:34.336Z,19.20
2018-11-02T23:52:41.467Z,19.20
